sensor_id;sensor_type;location;lat;lon;timestamp;P1;durP1;ratioP1;P2;durP2;ratioP2
54454;SDS011;40364;52.270;10.546;2023-12-07T00:01:17;54.97;;;22.60;;
54454;SDS011;40364;52.270;10.546;2023-12-07T00:03:43;53.70;;;24.10;;
54454;SDS011;40364;52.270;10.546;2023-12-07T00:06:10;51.75;;;21.63;;
54454;SDS011;40364;52.270;10.546;2023-12-07T00:08:38;46.42;;;21.20;;
54454;SDS011;40364;52.270;10.546;2023-12-07T00:11:05;46.45;;;21.65;;
54454;SDS011;40364;52.270;10.546;2023-12-07T00:13:32;44.72;;;21.45;;
54454;SDS011;40364;52.270;10.546;2023-12-07T00:15:59;47.78;;;21.00;;
54454;SDS011;40364;52.270;10.546;2023-12-07T00:18:25;46.33;;;21.73;;
54454;SDS011;40364;52.270;10.546;2023-12-07T00:20:52;50.00;;;21.50;;
54454;SDS011;40364;52.270;10.546;2023-12-07T00:23:19;52.72;;;22.58;;
54454;SDS011;40364;52.270;10.546;2023-12-07T00:25:47;49.80;;;21.20;;
54454;SDS011;40364;52.270;10.546;2023-12-07T00:28:14;49.85;;;20.48;;
54454;SDS011;40364;52.270;10.546;2023-12-07T00:30:41;46.15;;;21.35;;
54454;SDS011;40364;52.270;10.546;2023-12-07T00:33:08;46.20;;;22.00;;
54454;SDS011;40364;52.270;10.546;2023-12-07T00:35:35;46.70;;;20.92;;
54454;SDS011;40364;52.270;10.546;2023-12-07T00:38:02;45.42;;;20.38;;
54454;SDS011;40364;52.270;10.546;2023-12-07T00:40:28;47.55;;;21.25;;
54454;SDS011;40364;52.270;10.546;2023-12-07T00:42:56;45.45;;;21.35;;
54454;SDS011;40364;52.270;10.546;2023-12-07T00:45:24;47.22;;;20.25;;
54454;SDS011;40364;52.270;10.546;2023-12-07T00:47:50;43.55;;;19.98;;
54454;SDS011;40364;52.270;10.546;2023-12-07T00:50:17;45.30;;;20.48;;
54454;SDS011;40364;52.270;10.546;2023-12-07T00:52:44;45.85;;;20.77;;
54454;SDS011;40364;52.270;10.546;2023-12-07T00:55:10;49.92;;;21.73;;
54454;SDS011;40364;52.270;10.546;2023-12-07T00:57:37;48.55;;;20.60;;
54454;SDS011;40364;52.270;10.546;2023-12-07T01:00:06;45.50;;;20.83;;
54454;SDS011;40364;52.270;10.546;2023-12-07T01:02:33;47.67;;;21.13;;
54454;SDS011;40364;52.270;10.546;2023-12-07T01:05:00;44.80;;;20.38;;
54454;SDS011;40364;52.270;10.546;2023-12-07T01:07:26;45.28;;;20.15;;
54454;SDS011;40364;52.270;10.546;2023-12-07T01:09:53;46.20;;;20.40;;
54454;SDS011;40364;52.270;10.546;2023-12-07T01:12:20;45.20;;;20.48;;
54454;SDS011;40364;52.270;10.546;2023-12-07T01:14:46;42.05;;;19.63;;
54454;SDS011;40364;52.270;10.546;2023-12-07T01:17:14;45.90;;;20.15;;
54454;SDS011;40364;52.270;10.546;2023-12-07T01:19:41;47.78;;;22.02;;
54454;SDS011;40364;52.270;10.546;2023-12-07T01:22:07;51.28;;;20.75;;
54454;SDS011;40364;52.270;10.546;2023-12-07T01:24:34;50.50;;;20.17;;
54454;SDS011;40364;52.270;10.546;2023-12-07T01:27:01;46.08;;;20.13;;
54454;SDS011;40364;52.270;10.546;2023-12-07T01:29:27;50.08;;;21.30;;
54454;SDS011;40364;52.270;10.546;2023-12-07T01:31:54;50.00;;;21.63;;
54454;SDS011;40364;52.270;10.546;2023-12-07T01:34:22;46.60;;;20.83;;
54454;SDS011;40364;52.270;10.546;2023-12-07T01:36:48;50.40;;;21.58;;
54454;SDS011;40364;52.270;10.546;2023-12-07T01:39:15;44.40;;;20.52;;
54454;SDS011;40364;52.270;10.546;2023-12-07T01:41:42;46.53;;;19.17;;
54454;SDS011;40364;52.270;10.546;2023-12-07T01:44:08;41.58;;;20.73;;
54454;SDS011;40364;52.270;10.546;2023-12-07T01:46:35;49.03;;;20.15;;
54454;SDS011;40364;52.270;10.546;2023-12-07T01:49:03;48.55;;;20.80;;
54454;SDS011;40364;52.270;10.546;2023-12-07T01:51:31;43.90;;;18.70;;
54454;SDS011;40364;52.270;10.546;2023-12-07T01:53:58;50.58;;;21.65;;
54454;SDS011;40364;52.270;10.546;2023-12-07T01:56:25;45.88;;;21.35;;
54454;SDS011;40364;52.270;10.546;2023-12-07T01:58:52;45.42;;;20.00;;
54454;SDS011;40364;52.270;10.546;2023-12-07T02:01:19;47.45;;;20.98;;
54454;SDS011;40364;52.270;10.546;2023-12-07T02:03:47;50.35;;;21.60;;
54454;SDS011;40364;52.270;10.546;2023-12-07T02:06:14;48.10;;;21.60;;
54454;SDS011;40364;52.270;10.546;2023-12-07T02:08:43;57.73;;;21.53;;
54454;SDS011;40364;52.270;10.546;2023-12-07T02:11:09;53.47;;;22.30;;
54454;SDS011;40364;52.270;10.546;2023-12-07T02:13:36;46.33;;;21.02;;
54454;SDS011;40364;52.270;10.546;2023-12-07T02:16:04;49.42;;;20.77;;
54454;SDS011;40364;52.270;10.546;2023-12-07T02:18:38;46.80;;;20.15;;
54454;SDS011;40364;52.270;10.546;2023-12-07T02:21:11;49.65;;;22.38;;
54454;SDS011;40364;52.270;10.546;2023-12-07T02:23:43;48.25;;;21.30;;
54454;SDS011;40364;52.270;10.546;2023-12-07T02:29:15;45.15;;;20.42;;
54454;SDS011;40364;52.270;10.546;2023-12-07T02:31:41;47.08;;;21.23;;
54454;SDS011;40364;52.270;10.546;2023-12-07T02:34:08;46.22;;;17.85;;
54454;SDS011;40364;52.270;10.546;2023-12-07T02:36:35;41.67;;;20.08;;
54454;SDS011;40364;52.270;10.546;2023-12-07T02:39:05;41.38;;;19.30;;
54454;SDS011;40364;52.270;10.546;2023-12-07T02:41:34;43.70;;;19.33;;
54454;SDS011;40364;52.270;10.546;2023-12-07T02:44:02;42.58;;;19.55;;
54454;SDS011;40364;52.270;10.546;2023-12-07T02:46:31;42.75;;;20.20;;
54454;SDS011;40364;52.270;10.546;2023-12-07T02:48:58;40.30;;;17.83;;
54454;SDS011;40364;52.270;10.546;2023-12-07T02:51:24;42.00;;;19.23;;
54454;SDS011;40364;52.270;10.546;2023-12-07T02:53:51;45.13;;;19.65;;
54454;SDS011;40364;52.270;10.546;2023-12-07T02:56:18;41.00;;;19.92;;
54454;SDS011;40364;52.270;10.546;2023-12-07T02:58:44;42.60;;;19.02;;
54454;SDS011;40364;52.270;10.546;2023-12-07T03:01:11;39.58;;;17.90;;
54454;SDS011;40364;52.270;10.546;2023-12-07T03:03:39;35.80;;;16.73;;
54454;SDS011;40364;52.270;10.546;2023-12-07T03:06:07;39.00;;;18.58;;
54454;SDS011;40364;52.270;10.546;2023-12-07T03:08:34;34.10;;;17.10;;
54454;SDS011;40364;52.270;10.546;2023-12-07T03:11:00;41.08;;;17.35;;
54454;SDS011;40364;52.270;10.546;2023-12-07T03:13:27;36.42;;;17.77;;
54454;SDS011;40364;52.270;10.546;2023-12-07T03:15:53;35.78;;;18.33;;
54454;SDS011;40364;52.270;10.546;2023-12-07T03:18:20;35.78;;;18.35;;
54454;SDS011;40364;52.270;10.546;2023-12-07T03:20:48;34.95;;;17.05;;
54454;SDS011;40364;52.270;10.546;2023-12-07T03:23:15;36.97;;;18.75;;
54454;SDS011;40364;52.270;10.546;2023-12-07T03:25:42;38.95;;;18.30;;
54454;SDS011;40364;52.270;10.546;2023-12-07T03:28:08;37.30;;;18.58;;
54454;SDS011;40364;52.270;10.546;2023-12-07T03:30:35;37.40;;;17.58;;
54454;SDS011;40364;52.270;10.546;2023-12-07T03:33:02;36.97;;;17.60;;
54454;SDS011;40364;52.270;10.546;2023-12-07T03:35:29;41.83;;;19.05;;
54454;SDS011;40364;52.270;10.546;2023-12-07T03:37:57;37.17;;;18.70;;
54454;SDS011;40364;52.270;10.546;2023-12-07T03:40:23;34.35;;;17.70;;
54454;SDS011;40364;52.270;10.546;2023-12-07T03:42:50;36.70;;;18.33;;
54454;SDS011;40364;52.270;10.546;2023-12-07T03:45:16;38.58;;;17.58;;
54454;SDS011;40364;52.270;10.546;2023-12-07T03:47:43;40.50;;;18.58;;
54454;SDS011;40364;52.270;10.546;2023-12-07T03:50:10;36.90;;;17.88;;
54454;SDS011;40364;52.270;10.546;2023-12-07T03:52:36;33.28;;;16.45;;
54454;SDS011;40364;52.270;10.546;2023-12-07T03:55:05;34.55;;;19.02;;
54454;SDS011;40364;52.270;10.546;2023-12-07T03:57:32;36.33;;;18.42;;
54454;SDS011;40364;52.270;10.546;2023-12-07T03:59:59;36.53;;;18.08;;
54454;SDS011;40364;52.270;10.546;2023-12-07T04:02:26;35.05;;;17.63;;
54454;SDS011;40364;52.270;10.546;2023-12-07T04:04:52;33.83;;;16.90;;
54454;SDS011;40364;52.270;10.546;2023-12-07T04:07:19;32.00;;;16.77;;
54454;SDS011;40364;52.270;10.546;2023-12-07T04:09:46;34.10;;;16.30;;
54454;SDS011;40364;52.270;10.546;2023-12-07T04:12:15;41.80;;;16.33;;
54454;SDS011;40364;52.270;10.546;2023-12-07T04:14:41;31.30;;;15.68;;
54454;SDS011;40364;52.270;10.546;2023-12-07T04:17:08;36.17;;;16.45;;
54454;SDS011;40364;52.270;10.546;2023-12-07T04:19:34;30.40;;;13.20;;
54454;SDS011;40364;52.270;10.546;2023-12-07T04:22:01;29.13;;;14.55;;
54454;SDS011;40364;52.270;10.546;2023-12-07T04:24:28;31.05;;;14.95;;
54454;SDS011;40364;52.270;10.546;2023-12-07T04:26:54;32.67;;;15.70;;
54454;SDS011;40364;52.270;10.546;2023-12-07T04:29:23;32.85;;;14.68;;
54454;SDS011;40364;52.270;10.546;2023-12-07T04:31:49;31.77;;;15.20;;
54454;SDS011;40364;52.270;10.546;2023-12-07T04:34:16;27.02;;;14.00;;
54454;SDS011;40364;52.270;10.546;2023-12-07T04:36:43;27.38;;;14.48;;
54454;SDS011;40364;52.270;10.546;2023-12-07T04:39:09;34.08;;;15.65;;
54454;SDS011;40364;52.270;10.546;2023-12-07T04:41:36;30.65;;;14.73;;
54454;SDS011;40364;52.270;10.546;2023-12-07T04:44:03;31.20;;;15.60;;
54454;SDS011;40364;52.270;10.546;2023-12-07T04:46:32;32.63;;;15.77;;
54454;SDS011;40364;52.270;10.546;2023-12-07T04:48:58;28.35;;;15.45;;
54454;SDS011;40364;52.270;10.546;2023-12-07T04:51:25;29.75;;;16.17;;
54454;SDS011;40364;52.270;10.546;2023-12-07T04:53:51;31.60;;;16.42;;
54454;SDS011;40364;52.270;10.546;2023-12-07T04:56:18;31.48;;;16.08;;
54454;SDS011;40364;52.270;10.546;2023-12-07T04:58:45;31.90;;;16.17;;
54454;SDS011;40364;52.270;10.546;2023-12-07T05:01:11;33.03;;;16.40;;
54454;SDS011;40364;52.270;10.546;2023-12-07T05:03:39;31.45;;;16.63;;
54454;SDS011;40364;52.270;10.546;2023-12-07T05:06:06;35.15;;;16.83;;
54454;SDS011;40364;52.270;10.546;2023-12-07T05:08:33;31.23;;;15.63;;
54454;SDS011;40364;52.270;10.546;2023-12-07T05:11:00;31.92;;;15.75;;
54454;SDS011;40364;52.270;10.546;2023-12-07T05:13:27;30.30;;;15.70;;
54454;SDS011;40364;52.270;10.546;2023-12-07T05:15:53;35.38;;;16.77;;
54454;SDS011;40364;52.270;10.546;2023-12-07T05:18:21;35.67;;;16.85;;
54454;SDS011;40364;52.270;10.546;2023-12-07T05:20:49;33.53;;;15.77;;
54454;SDS011;40364;52.270;10.546;2023-12-07T05:23:16;29.27;;;14.88;;
54454;SDS011;40364;52.270;10.546;2023-12-07T05:25:42;32.67;;;16.95;;
54454;SDS011;40364;52.270;10.546;2023-12-07T05:28:09;33.35;;;16.80;;
54454;SDS011;40364;52.270;10.546;2023-12-07T05:30:36;37.38;;;16.80;;
54454;SDS011;40364;52.270;10.546;2023-12-07T05:33:03;37.70;;;17.30;;
54454;SDS011;40364;52.270;10.546;2023-12-07T05:35:30;32.55;;;17.38;;
54454;SDS011;40364;52.270;10.546;2023-12-07T05:37:58;30.80;;;16.50;;
54454;SDS011;40364;52.270;10.546;2023-12-07T05:40:24;33.50;;;16.75;;
54454;SDS011;40364;52.270;10.546;2023-12-07T05:42:52;32.53;;;16.75;;
54454;SDS011;40364;52.270;10.546;2023-12-07T05:45:19;33.50;;;17.15;;
54454;SDS011;40364;52.270;10.546;2023-12-07T05:47:45;35.40;;;16.70;;
54454;SDS011;40364;52.270;10.546;2023-12-07T05:50:12;37.75;;;17.02;;
54454;SDS011;40364;52.270;10.546;2023-12-07T05:52:39;35.00;;;17.40;;
54454;SDS011;40364;52.270;10.546;2023-12-07T05:55:08;36.53;;;17.08;;
54454;SDS011;40364;52.270;10.546;2023-12-07T05:57:35;36.95;;;17.92;;
54454;SDS011;40364;52.270;10.546;2023-12-07T06:00:02;38.05;;;18.13;;
54454;SDS011;40364;52.270;10.546;2023-12-07T06:02:30;38.25;;;18.67;;
54454;SDS011;40364;52.270;10.546;2023-12-07T06:04:57;40.85;;;18.70;;
54454;SDS011;40364;52.270;10.546;2023-12-07T06:07:24;38.22;;;17.00;;
54454;SDS011;40364;52.270;10.546;2023-12-07T06:09:51;33.38;;;17.23;;
54454;SDS011;40364;52.270;10.546;2023-12-07T06:12:19;40.45;;;19.33;;
54454;SDS011;40364;52.270;10.546;2023-12-07T06:14:47;36.80;;;17.92;;
54454;SDS011;40364;52.270;10.546;2023-12-07T06:17:14;42.35;;;18.40;;
54454;SDS011;40364;52.270;10.546;2023-12-07T06:19:41;35.90;;;18.45;;
54454;SDS011;40364;52.270;10.546;2023-12-07T06:22:08;39.75;;;19.10;;
54454;SDS011;40364;52.270;10.546;2023-12-07T06:24:35;39.50;;;18.40;;
54454;SDS011;40364;52.270;10.546;2023-12-07T06:27:02;35.45;;;17.42;;
54454;SDS011;40364;52.270;10.546;2023-12-07T06:29:30;38.42;;;18.65;;
54454;SDS011;40364;52.270;10.546;2023-12-07T06:31:57;38.45;;;17.88;;
54454;SDS011;40364;52.270;10.546;2023-12-07T06:34:25;38.08;;;18.27;;
54454;SDS011;40364;52.270;10.546;2023-12-07T06:36:53;36.00;;;17.58;;
54454;SDS011;40364;52.270;10.546;2023-12-07T06:39:20;38.20;;;18.73;;
54454;SDS011;40364;52.270;10.546;2023-12-07T06:41:46;36.25;;;17.15;;
54454;SDS011;40364;52.270;10.546;2023-12-07T06:44:13;33.80;;;17.58;;
54454;SDS011;40364;52.270;10.546;2023-12-07T06:46:41;34.50;;;17.30;;
54454;SDS011;40364;52.270;10.546;2023-12-07T06:49:08;39.15;;;18.60;;
54454;SDS011;40364;52.270;10.546;2023-12-07T06:51:37;34.78;;;17.30;;
54454;SDS011;40364;52.270;10.546;2023-12-07T06:54:04;33.05;;;17.17;;
54454;SDS011;40364;52.270;10.546;2023-12-07T06:56:31;33.50;;;15.77;;
54454;SDS011;40364;52.270;10.546;2023-12-07T06:58:57;32.92;;;16.38;;
54454;SDS011;40364;52.270;10.546;2023-12-07T07:01:24;35.25;;;17.48;;
54454;SDS011;40364;52.270;10.546;2023-12-07T07:03:52;39.40;;;20.35;;
54454;SDS011;40364;52.270;10.546;2023-12-07T07:06:18;41.58;;;19.40;;
54454;SDS011;40364;52.270;10.546;2023-12-07T07:08:45;32.55;;;17.23;;
54454;SDS011;40364;52.270;10.546;2023-12-07T07:11:12;39.63;;;18.10;;
54454;SDS011;40364;52.270;10.546;2023-12-07T07:13:40;36.78;;;18.60;;
54454;SDS011;40364;52.270;10.546;2023-12-07T07:16:07;39.47;;;17.27;;
54454;SDS011;40364;52.270;10.546;2023-12-07T07:18:34;33.40;;;15.25;;
54454;SDS011;40364;52.270;10.546;2023-12-07T07:21:02;30.23;;;13.05;;
54454;SDS011;40364;52.270;10.546;2023-12-07T07:23:29;84.43;;;26.95;;
54454;SDS011;40364;52.270;10.546;2023-12-07T07:25:56;42.83;;;17.20;;
54454;SDS011;40364;52.270;10.546;2023-12-07T07:28:23;38.38;;;17.30;;
54454;SDS011;40364;52.270;10.546;2023-12-07T07:30:49;41.58;;;15.25;;
54454;SDS011;40364;52.270;10.546;2023-12-07T07:33:16;16.55;;;8.43;;
54454;SDS011;40364;52.270;10.546;2023-12-07T07:35:43;18.88;;;6.43;;
54454;SDS011;40364;52.270;10.546;2023-12-07T07:38:11;20.20;;;9.52;;
54454;SDS011;40364;52.270;10.546;2023-12-07T07:40:39;24.98;;;8.20;;
54454;SDS011;40364;52.270;10.546;2023-12-07T07:43:06;14.55;;;7.25;;
54454;SDS011;40364;52.270;10.546;2023-12-07T07:45:33;19.60;;;6.80;;
54454;SDS011;40364;52.270;10.546;2023-12-07T07:48:03;19.42;;;9.25;;
54454;SDS011;40364;52.270;10.546;2023-12-07T07:50:30;45.83;;;16.85;;
54454;SDS011;40364;52.270;10.546;2023-12-07T07:52:57;13.27;;;6.85;;
54454;SDS011;40364;52.270;10.546;2023-12-07T07:55:25;30.80;;;8.77;;
54454;SDS011;40364;52.270;10.546;2023-12-07T07:57:51;16.10;;;7.35;;
54454;SDS011;40364;52.270;10.546;2023-12-07T08:00:19;17.90;;;9.90;;
54454;SDS011;40364;52.270;10.546;2023-12-07T08:02:46;23.42;;;9.73;;
54454;SDS011;40364;52.270;10.546;2023-12-07T08:05:13;25.40;;;9.55;;
54454;SDS011;40364;52.270;10.546;2023-12-07T08:07:40;21.23;;;10.35;;
54454;SDS011;40364;52.270;10.546;2023-12-07T08:10:07;31.75;;;14.25;;
54454;SDS011;40364;52.270;10.546;2023-12-07T08:12:36;28.65;;;13.07;;
54454;SDS011;40364;52.270;10.546;2023-12-07T08:15:03;28.30;;;13.05;;
54454;SDS011;40364;52.270;10.546;2023-12-07T08:17:36;23.75;;;11.18;;
54454;SDS011;40364;52.270;10.546;2023-12-07T08:20:03;33.22;;;14.05;;
54454;SDS011;40364;52.270;10.546;2023-12-07T08:22:31;24.35;;;11.38;;
54454;SDS011;40364;52.270;10.546;2023-12-07T08:24:58;31.23;;;13.43;;
54454;SDS011;40364;52.270;10.546;2023-12-07T08:27:25;38.22;;;15.48;;
54454;SDS011;40364;52.270;10.546;2023-12-07T08:29:53;28.17;;;12.98;;
54454;SDS011;40364;52.270;10.546;2023-12-07T08:32:20;26.40;;;12.80;;
54454;SDS011;40364;52.270;10.546;2023-12-07T08:34:46;26.05;;;11.35;;
54454;SDS011;40364;52.270;10.546;2023-12-07T08:37:13;25.17;;;11.80;;
54454;SDS011;40364;52.270;10.546;2023-12-07T08:39:39;37.80;;;15.13;;
54454;SDS011;40364;52.270;10.546;2023-12-07T08:42:06;31.27;;;13.20;;
54454;SDS011;40364;52.270;10.546;2023-12-07T08:44:33;33.38;;;12.52;;
54454;SDS011;40364;52.270;10.546;2023-12-07T08:47:02;27.55;;;12.93;;
54454;SDS011;40364;52.270;10.546;2023-12-07T08:49:28;27.48;;;12.55;;
54454;SDS011;40364;52.270;10.546;2023-12-07T08:51:55;26.17;;;11.13;;
54454;SDS011;40364;52.270;10.546;2023-12-07T08:54:21;29.10;;;10.65;;
54454;SDS011;40364;52.270;10.546;2023-12-07T08:56:48;25.77;;;12.07;;
54454;SDS011;40364;52.270;10.546;2023-12-07T08:59:15;38.75;;;12.80;;
54454;SDS011;40364;52.270;10.546;2023-12-07T09:01:42;28.15;;;11.93;;
54454;SDS011;40364;52.270;10.546;2023-12-07T09:04:10;29.13;;;11.98;;
54454;SDS011;40364;52.270;10.546;2023-12-07T09:06:37;23.30;;;12.32;;
54454;SDS011;40364;52.270;10.546;2023-12-07T09:09:04;23.70;;;11.45;;
54454;SDS011;40364;52.270;10.546;2023-12-07T09:11:30;22.63;;;10.82;;
54454;SDS011;40364;52.270;10.546;2023-12-07T09:13:57;19.38;;;9.90;;
54454;SDS011;40364;52.270;10.546;2023-12-07T09:16:26;21.67;;;10.38;;
54454;SDS011;40364;52.270;10.546;2023-12-07T09:18:52;22.88;;;11.23;;
54454;SDS011;40364;52.270;10.546;2023-12-07T09:21:20;24.88;;;11.15;;
54454;SDS011;40364;52.270;10.546;2023-12-07T09:23:47;30.52;;;12.55;;
54454;SDS011;40364;52.270;10.546;2023-12-07T09:26:14;22.52;;;10.93;;
54454;SDS011;40364;52.270;10.546;2023-12-07T09:28:40;24.25;;;11.68;;
54454;SDS011;40364;52.270;10.546;2023-12-07T09:31:07;26.55;;;12.40;;
54454;SDS011;40364;52.270;10.546;2023-12-07T09:33:34;25.92;;;13.13;;
54454;SDS011;40364;52.270;10.546;2023-12-07T09:36:00;26.60;;;11.55;;
54454;SDS011;40364;52.270;10.546;2023-12-07T09:38:30;21.10;;;11.20;;
54454;SDS011;40364;52.270;10.546;2023-12-07T09:40:56;24.85;;;11.35;;
54454;SDS011;40364;52.270;10.546;2023-12-07T09:43:23;22.27;;;11.07;;
54454;SDS011;40364;52.270;10.546;2023-12-07T09:45:49;19.90;;;9.05;;
54454;SDS011;40364;52.270;10.546;2023-12-07T09:48:20;28.08;;;11.80;;
54454;SDS011;40364;52.270;10.546;2023-12-07T09:50:47;22.05;;;11.07;;
54454;SDS011;40364;52.270;10.546;2023-12-07T09:53:14;21.33;;;9.75;;
54454;SDS011;40364;52.270;10.546;2023-12-07T09:55:42;27.02;;;11.88;;
54454;SDS011;40364;52.270;10.546;2023-12-07T09:58:09;25.05;;;13.18;;
54454;SDS011;40364;52.270;10.546;2023-12-07T10:00:37;27.10;;;11.25;;
54454;SDS011;40364;52.270;10.546;2023-12-07T10:03:04;19.02;;;9.05;;
54454;SDS011;40364;52.270;10.546;2023-12-07T10:05:33;24.77;;;11.15;;
54454;SDS011;40364;52.270;10.546;2023-12-07T10:08:00;24.20;;;11.05;;
54454;SDS011;40364;52.270;10.546;2023-12-07T10:10:27;29.20;;;11.75;;
54454;SDS011;40364;52.270;10.546;2023-12-07T10:12:55;21.77;;;11.15;;
54454;SDS011;40364;52.270;10.546;2023-12-07T10:15:25;25.15;;;12.45;;
54454;SDS011;40364;52.270;10.546;2023-12-07T10:17:53;29.30;;;11.73;;
54454;SDS011;40364;52.270;10.546;2023-12-07T10:20:22;24.73;;;12.23;;
54454;SDS011;40364;52.270;10.546;2023-12-07T10:23:00;30.40;;;12.50;;
54454;SDS011;40364;52.270;10.546;2023-12-07T10:25:27;33.85;;;11.68;;
54454;SDS011;40364;52.270;10.546;2023-12-07T10:27:56;26.13;;;12.23;;
54454;SDS011;40364;52.270;10.546;2023-12-07T10:30:23;26.48;;;11.07;;
54454;SDS011;40364;52.270;10.546;2023-12-07T10:32:50;24.42;;;12.02;;
54454;SDS011;40364;52.270;10.546;2023-12-07T10:35:18;24.40;;;12.27;;
54454;SDS011;40364;52.270;10.546;2023-12-07T10:37:45;26.63;;;11.00;;
54454;SDS011;40364;52.270;10.546;2023-12-07T10:40:12;26.13;;;11.38;;
54454;SDS011;40364;52.270;10.546;2023-12-07T10:42:39;26.98;;;11.25;;
54454;SDS011;40364;52.270;10.546;2023-12-07T10:45:09;27.70;;;13.00;;
54454;SDS011;40364;52.270;10.546;2023-12-07T10:47:39;27.75;;;11.32;;
54454;SDS011;40364;52.270;10.546;2023-12-07T10:50:09;31.00;;;12.02;;
54454;SDS011;40364;52.270;10.546;2023-12-07T10:52:37;31.85;;;11.93;;
54454;SDS011;40364;52.270;10.546;2023-12-07T10:55:12;24.45;;;11.23;;
54454;SDS011;40364;52.270;10.546;2023-12-07T10:57:43;29.10;;;12.30;;
54454;SDS011;40364;52.270;10.546;2023-12-07T11:00:13;23.33;;;10.95;;
54454;SDS011;40364;52.270;10.546;2023-12-07T11:02:40;25.98;;;12.50;;
54454;SDS011;40364;52.270;10.546;2023-12-07T11:05:08;31.25;;;11.63;;
54454;SDS011;40364;52.270;10.546;2023-12-07T11:07:38;23.20;;;11.88;;
54454;SDS011;40364;52.270;10.546;2023-12-07T11:10:15;24.65;;;11.55;;
54454;SDS011;40364;52.270;10.546;2023-12-07T11:12:49;26.33;;;10.25;;
54454;SDS011;40364;52.270;10.546;2023-12-07T11:15:23;24.05;;;10.77;;
54454;SDS011;40364;52.270;10.546;2023-12-07T11:17:51;24.08;;;11.50;;
54454;SDS011;40364;52.270;10.546;2023-12-07T11:20:19;22.50;;;11.73;;
54454;SDS011;40364;52.270;10.546;2023-12-07T11:22:46;26.42;;;10.52;;
54454;SDS011;40364;52.270;10.546;2023-12-07T11:25:14;22.75;;;10.73;;
54454;SDS011;40364;52.270;10.546;2023-12-07T11:27:43;20.15;;;9.73;;
54454;SDS011;40364;52.270;10.546;2023-12-07T11:30:12;23.15;;;10.40;;
54454;SDS011;40364;52.270;10.546;2023-12-07T11:32:42;24.90;;;10.27;;
54454;SDS011;40364;52.270;10.546;2023-12-07T11:35:11;21.25;;;10.27;;
54454;SDS011;40364;52.270;10.546;2023-12-07T11:40:31;22.05;;;10.68;;
54454;SDS011;40364;52.270;10.546;2023-12-07T11:42:58;22.08;;;10.80;;
54454;SDS011;40364;52.270;10.546;2023-12-07T11:48:10;20.10;;;10.57;;
54454;SDS011;40364;52.270;10.546;2023-12-07T11:50:53;21.40;;;9.85;;
54454;SDS011;40364;52.270;10.546;2023-12-07T11:53:22;22.23;;;10.15;;
54454;SDS011;40364;52.270;10.546;2023-12-07T11:55:49;21.70;;;10.45;;
54454;SDS011;40364;52.270;10.546;2023-12-07T11:58:17;22.48;;;10.10;;
54454;SDS011;40364;52.270;10.546;2023-12-07T12:00:43;18.70;;;8.85;;
54454;SDS011;40364;52.270;10.546;2023-12-07T12:03:13;22.67;;;10.57;;
54454;SDS011;40364;52.270;10.546;2023-12-07T12:05:41;19.42;;;10.07;;
54454;SDS011;40364;52.270;10.546;2023-12-07T12:08:09;21.65;;;10.23;;
54454;SDS011;40364;52.270;10.546;2023-12-07T12:10:36;23.83;;;10.20;;
54454;SDS011;40364;52.270;10.546;2023-12-07T12:13:03;18.73;;;9.45;;
54454;SDS011;40364;52.270;10.546;2023-12-07T12:15:31;21.80;;;9.43;;
54454;SDS011;40364;52.270;10.546;2023-12-07T12:17:58;21.20;;;9.63;;
54454;SDS011;40364;52.270;10.546;2023-12-07T12:20:27;19.15;;;8.95;;
54454;SDS011;40364;52.270;10.546;2023-12-07T12:22:54;19.83;;;9.48;;
54454;SDS011;40364;52.270;10.546;2023-12-07T12:25:21;21.00;;;10.70;;
54454;SDS011;40364;52.270;10.546;2023-12-07T12:27:50;20.23;;;9.88;;
54454;SDS011;40364;52.270;10.546;2023-12-07T12:30:18;20.70;;;9.85;;
54454;SDS011;40364;52.270;10.546;2023-12-07T12:32:45;19.80;;;9.82;;
54454;SDS011;40364;52.270;10.546;2023-12-07T12:35:12;21.35;;;10.40;;
54454;SDS011;40364;52.270;10.546;2023-12-07T12:37:42;26.45;;;10.30;;
54454;SDS011;40364;52.270;10.546;2023-12-07T12:40:10;21.95;;;10.13;;
54454;SDS011;40364;52.270;10.546;2023-12-07T12:42:37;26.02;;;11.13;;
54454;SDS011;40364;52.270;10.546;2023-12-07T12:45:04;20.92;;;10.65;;
54454;SDS011;40364;52.270;10.546;2023-12-07T12:47:33;22.33;;;10.23;;
54454;SDS011;40364;52.270;10.546;2023-12-07T12:50:00;18.75;;;9.57;;
54454;SDS011;40364;52.270;10.546;2023-12-07T12:52:29;18.85;;;8.77;;
54454;SDS011;40364;52.270;10.546;2023-12-07T12:54:59;20.85;;;10.60;;
54454;SDS011;40364;52.270;10.546;2023-12-07T12:57:26;23.88;;;11.32;;
54454;SDS011;40364;52.270;10.546;2023-12-07T12:59:53;19.80;;;9.07;;
54454;SDS011;40364;52.270;10.546;2023-12-07T13:02:19;22.88;;;10.10;;
54454;SDS011;40364;52.270;10.546;2023-12-07T13:04:47;19.70;;;9.63;;
54454;SDS011;40364;52.270;10.546;2023-12-07T13:07:13;21.40;;;9.85;;
54454;SDS011;40364;52.270;10.546;2023-12-07T13:09:40;17.25;;;9.23;;
54454;SDS011;40364;52.270;10.546;2023-12-07T13:12:10;17.33;;;9.82;;
54454;SDS011;40364;52.270;10.546;2023-12-07T13:14:37;22.77;;;10.77;;
54454;SDS011;40364;52.270;10.546;2023-12-07T13:17:05;20.98;;;10.73;;
54454;SDS011;40364;52.270;10.546;2023-12-07T13:19:33;20.83;;;9.35;;
54454;SDS011;40364;52.270;10.546;2023-12-07T13:22:00;21.23;;;10.68;;
54454;SDS011;40364;52.270;10.546;2023-12-07T13:24:28;21.23;;;10.07;;
54454;SDS011;40364;52.270;10.546;2023-12-07T13:26:56;19.73;;;10.05;;
54454;SDS011;40364;52.270;10.546;2023-12-07T13:29:31;23.48;;;11.75;;
54454;SDS011;40364;52.270;10.546;2023-12-07T13:32:10;18.85;;;9.93;;
54454;SDS011;40364;52.270;10.546;2023-12-07T13:34:38;23.40;;;11.10;;
54454;SDS011;40364;52.270;10.546;2023-12-07T13:37:05;25.98;;;10.88;;
54454;SDS011;40364;52.270;10.546;2023-12-07T13:39:32;18.35;;;8.95;;
54454;SDS011;40364;52.270;10.546;2023-12-07T13:42:08;22.20;;;10.65;;
54454;SDS011;40364;52.270;10.546;2023-12-07T13:44:36;17.48;;;9.18;;
54454;SDS011;40364;52.270;10.546;2023-12-07T13:47:03;22.55;;;10.00;;
54454;SDS011;40364;52.270;10.546;2023-12-07T13:49:30;17.95;;;9.48;;
54454;SDS011;40364;52.270;10.546;2023-12-07T13:51:57;26.58;;;10.63;;
54454;SDS011;40364;52.270;10.546;2023-12-07T13:54:25;22.08;;;9.85;;
54454;SDS011;40364;52.270;10.546;2023-12-07T13:56:51;19.70;;;10.57;;
54454;SDS011;40364;52.270;10.546;2023-12-07T13:59:18;22.23;;;10.25;;
54454;SDS011;40364;52.270;10.546;2023-12-07T14:01:46;22.83;;;10.07;;
54454;SDS011;40364;52.270;10.546;2023-12-07T14:04:13;20.77;;;10.25;;
54454;SDS011;40364;52.270;10.546;2023-12-07T14:06:40;21.20;;;9.80;;
54454;SDS011;40364;52.270;10.546;2023-12-07T14:12:46;39.15;;;15.85;;
54454;SDS011;40364;52.270;10.546;2023-12-07T14:15:13;36.72;;;15.68;;
54454;SDS011;40364;52.270;10.546;2023-12-07T14:17:41;31.25;;;12.10;;
54454;SDS011;40364;52.270;10.546;2023-12-07T14:20:09;27.40;;;11.00;;
54454;SDS011;40364;52.270;10.546;2023-12-07T14:22:37;22.23;;;9.48;;
54454;SDS011;40364;52.270;10.546;2023-12-07T14:25:04;15.35;;;8.73;;